Sao Miguel do Araguaia, Brazil
Current Conditions -  °F | °C
As of 4:00 PM on Thursday 23 Oct 2014 (Local Time) from SBAN Reporting Station
Thunderstorm Thunderstorm  
Wind Chill: 68°   Ceiling: 3000
Heat Index: 68°   Visibility: 3mi
Dew Point: 61°   Wind: 12mph
Humidity: 78%   Direction: 210°SSW
Pressure: NA   Gusts: NA
Location:  13.28°S, 50.16°W
Report Text: SBAN 231800Z 21010KT 5000 -TSRA BKN030 FEW035CB BKN100 20/16 Q1020
Loading
Personal Weather Stations






























Interactive Weather Map
Tropical Storm Tracking
New forecast layout! Learn more

10-Day Weather Forecast

Advertisements
Track Severe Weather on mobile